sensor_id;sensor_type;location;lat;lon;timestamp;P1;durP1;ratioP1;P2;durP2;ratioP2
23624;SDS011;11989;47.872;12.014;2023-02-10T06:36:43;29.58;;;14.02;;
23624;SDS011;11989;47.872;12.014;2023-02-10T06:39:09;28.35;;;15.07;;
23624;SDS011;11989;47.872;12.014;2023-02-10T06:41:35;23.35;;;13.80;;
23624;SDS011;11989;47.872;12.014;2023-02-10T06:44:01;28.05;;;15.27;;
23624;SDS011;11989;47.872;12.014;2023-02-10T06:46:27;20.65;;;12.45;;
23624;SDS011;11989;47.872;12.014;2023-02-10T06:48:53;21.58;;;11.27;;
23624;SDS011;11989;47.872;12.014;2023-02-10T06:51:19;20.13;;;10.73;;
23624;SDS011;11989;47.872;12.014;2023-02-10T06:53:45;20.02;;;11.20;;
23624;SDS011;11989;47.872;12.014;2023-02-10T06:56:12;14.23;;;9.80;;
23624;SDS011;11989;47.872;12.014;2023-02-10T06:58:38;24.52;;;12.32;;
23624;SDS011;11989;47.872;12.014;2023-02-10T07:01:11;17.95;;;11.68;;
23624;SDS011;11989;47.872;12.014;2023-02-10T07:03:37;20.27;;;13.40;;
23624;SDS011;11989;47.872;12.014;2023-02-10T07:06:03;18.60;;;12.93;;
23624;SDS011;11989;47.872;12.014;2023-02-10T07:08:29;17.83;;;11.85;;
23624;SDS011;11989;47.872;12.014;2023-02-10T07:10:55;17.70;;;11.07;;
23624;SDS011;11989;47.872;12.014;2023-02-10T07:13:21;17.48;;;10.75;;
23624;SDS011;11989;47.872;12.014;2023-02-10T07:15:47;18.30;;;11.75;;
23624;SDS011;11989;47.872;12.014;2023-02-10T07:18:13;22.75;;;12.10;;
23624;SDS011;11989;47.872;12.014;2023-02-10T07:20:39;20.77;;;13.00;;
23624;SDS011;11989;47.872;12.014;2023-02-10T07:23:05;25.90;;;13.45;;
23624;SDS011;11989;47.872;12.014;2023-02-10T07:25:32;30.65;;;17.00;;
23624;SDS011;11989;47.872;12.014;2023-02-10T07:27:58;34.45;;;18.40;;
23624;SDS011;11989;47.872;12.014;2023-02-10T07:30:24;31.67;;;16.38;;
23624;SDS011;11989;47.872;12.014;2023-02-10T07:32:50;37.92;;;19.00;;
23624;SDS011;11989;47.872;12.014;2023-02-10T07:35:16;28.55;;;16.45;;
23624;SDS011;11989;47.872;12.014;2023-02-10T07:37:42;33.83;;;18.92;;
23624;SDS011;11989;47.872;12.014;2023-02-10T07:40:09;32.60;;;18.67;;
23624;SDS011;11989;47.872;12.014;2023-02-10T07:42:35;34.33;;;20.55;;
23624;SDS011;11989;47.872;12.014;2023-02-10T07:45:01;37.55;;;22.40;;
23624;SDS011;11989;47.872;12.014;2023-02-10T07:47:27;40.67;;;23.15;;
23624;SDS011;11989;47.872;12.014;2023-02-10T07:49:53;29.70;;;18.55;;
23624;SDS011;11989;47.872;12.014;2023-02-10T07:52:20;30.77;;;18.33;;
23624;SDS011;11989;47.872;12.014;2023-02-10T07:54:47;33.75;;;19.02;;
23624;SDS011;11989;47.872;12.014;2023-02-10T07:57:13;27.48;;;15.10;;
23624;SDS011;11989;47.872;12.014;2023-02-10T07:59:39;21.95;;;13.10;;
23624;SDS011;11989;47.872;12.014;2023-02-10T08:02:05;22.52;;;13.63;;
23624;SDS011;11989;47.872;12.014;2023-02-10T08:04:31;21.23;;;12.40;;
23624;SDS011;11989;47.872;12.014;2023-02-10T08:06:57;20.00;;;12.07;;
23624;SDS011;11989;47.872;12.014;2023-02-10T08:09:23;15.52;;;9.27;;
23624;SDS011;11989;47.872;12.014;2023-02-10T08:11:49;16.08;;;9.27;;
23624;SDS011;11989;47.872;12.014;2023-02-10T08:14:15;16.70;;;9.38;;
23624;SDS011;11989;47.872;12.014;2023-02-10T08:16:41;13.02;;;9.10;;
23624;SDS011;11989;47.872;12.014;2023-02-10T08:19:07;12.15;;;9.63;;
23624;SDS011;11989;47.872;12.014;2023-02-10T08:21:33;14.50;;;10.23;;
23624;SDS011;11989;47.872;12.014;2023-02-10T08:23:59;12.98;;;9.60;;
23624;SDS011;11989;47.872;12.014;2023-02-10T08:26:26;12.90;;;9.50;;
23624;SDS011;11989;47.872;12.014;2023-02-10T08:28:52;12.57;;;9.50;;
23624;SDS011;11989;47.872;12.014;2023-02-10T08:31:19;10.98;;;7.57;;
23624;SDS011;11989;47.872;12.014;2023-02-10T08:33:46;10.65;;;8.02;;
23624;SDS011;11989;47.872;12.014;2023-02-10T08:36:12;11.70;;;7.85;;
23624;SDS011;11989;47.872;12.014;2023-02-10T08:38:39;9.93;;;6.85;;
23624;SDS011;11989;47.872;12.014;2023-02-10T08:41:05;10.73;;;7.15;;
23624;SDS011;11989;47.872;12.014;2023-02-10T08:43:31;11.18;;;6.97;;
23624;SDS011;11989;47.872;12.014;2023-02-10T08:45:58;11.68;;;7.97;;
23624;SDS011;11989;47.872;12.014;2023-02-10T08:48:25;11.65;;;7.82;;
23624;SDS011;11989;47.872;12.014;2023-02-10T08:50:51;12.52;;;8.15;;
